KMTW

Manitowoc County Airport

Manitowoc, Wisconsin, USA
METAR KMTW 172120Z AUTO 25007KT 1SM -SN BR FEW007 OVC013 M03/M05 A2990 RMK AO2 P0000 FZRANO
Observed Flight Rules
Feb-17 @ 21:20 UTC (16 minutes ago) Instrument Flight Rules
Wind Visibility Clouds Conditions
250° at 7 knots 1 miles
  • Few at 700' AGL
  • Overcast at 1,300' AGL
  • Light Snow
  • Mist
Temperatures Readings Precipitation
Current -3°C / 27°F
Dewpoint -5°C / 23°F
Humidity 86%
Altimeter 29.9" Hg
Pressure 1013 hPa
Elevation 198
Current Rain 0.005
METAR KMTW 172120Z AUTO 25007KT 1SM -SN BR FEW007 OVC013 M03/M05 A2990 RMK AO2 P0000 FZRANO
Observed Flight Rules
Feb-17 @ 21:20 UTC
(16 minutes ago)
IFR
Wind Visibility
250° at 7 knots 1 miles
Clouds
  • Few at 700' AGL
  • Overcast at 1,300' AGL
Conditions
  • Light Snow
  • Mist
Temperature Dewpoint
-3°C / 27°F -5°C / 23°F
Humidity Altimeter Pressure
86% 29.9" Hg 1013 hPa
Current Rain
0.005